sensor_id;sensor_type;location;lat;lon;timestamp;temperature;humidity
33460;DHT22;19795;53.160;6.612;2022-08-19T03:38:24;12.80;99.90
33460;DHT22;19795;53.160;6.612;2022-08-19T03:43:25;13.00;99.90
33460;DHT22;19795;53.160;6.612;2022-08-19T03:46:03;12.90;99.90
33460;DHT22;19795;53.160;6.612;2022-08-19T03:48:30;12.90;99.90
33460;DHT22;19795;53.160;6.612;2022-08-19T03:50:56;12.90;99.90
33460;DHT22;19795;53.160;6.612;2022-08-19T03:53:24;12.90;99.90
33460;DHT22;19795;53.160;6.612;2022-08-19T03:55:51;12.90;99.90
33460;DHT22;19795;53.160;6.612;2022-08-19T03:58:17;12.90;99.90
33460;DHT22;19795;53.160;6.612;2022-08-19T04:00:43;12.80;99.90
33460;DHT22;19795;53.160;6.612;2022-08-19T04:03:09;12.80;99.90
33460;DHT22;19795;53.160;6.612;2022-08-19T04:05:34;12.90;99.90
33460;DHT22;19795;53.160;6.612;2022-08-19T04:08:00;12.90;99.90
33460;DHT22;19795;53.160;6.612;2022-08-19T04:10:26;13.10;99.90
33460;DHT22;19795;53.160;6.612;2022-08-19T04:12:53;13.00;99.90
33460;DHT22;19795;53.160;6.612;2022-08-19T04:15:19;13.00;99.90
33460;DHT22;19795;53.160;6.612;2022-08-19T04:17:46;13.00;99.90
33460;DHT22;19795;53.160;6.612;2022-08-19T04:20:12;13.10;99.90
33460;DHT22;19795;53.160;6.612;2022-08-19T04:22:37;13.20;99.90
33460;DHT22;19795;53.160;6.612;2022-08-19T04:25:03;13.00;99.90
33460;DHT22;19795;53.160;6.612;2022-08-19T04:27:29;13.10;99.90
33460;DHT22;19795;53.160;6.612;2022-08-19T04:29:54;13.10;99.90
33460;DHT22;19795;53.160;6.612;2022-08-19T04:32:20;13.20;99.90
33460;DHT22;19795;53.160;6.612;2022-08-19T04:34:46;13.20;99.90
33460;DHT22;19795;53.160;6.612;2022-08-19T04:37:12;13.20;99.90
33460;DHT22;19795;53.160;6.612;2022-08-19T04:39:38;13.20;99.90
33460;DHT22;19795;53.160;6.612;2022-08-19T04:42:23;13.20;99.90
33460;DHT22;19795;53.160;6.612;2022-08-19T04:45:06;13.20;99.90
33460;DHT22;19795;53.160;6.612;2022-08-19T04:47:32;13.30;99.90
33460;DHT22;19795;53.160;6.612;2022-08-19T04:49:58;13.30;99.90
33460;DHT22;19795;53.160;6.612;2022-08-19T04:52:24;13.20;99.90
33460;DHT22;19795;53.160;6.612;2022-08-19T04:54:49;13.30;99.90
33460;DHT22;19795;53.160;6.612;2022-08-19T04:57:15;13.20;99.90
33460;DHT22;19795;53.160;6.612;2022-08-19T04:59:41;13.20;99.90
33460;DHT22;19795;53.160;6.612;2022-08-19T05:02:08;13.20;99.90
33460;DHT22;19795;53.160;6.612;2022-08-19T05:04:35;13.30;99.90
33460;DHT22;19795;53.160;6.612;2022-08-19T05:07:04;13.30;99.90
33460;DHT22;19795;53.160;6.612;2022-08-19T05:09:30;13.50;99.90
33460;DHT22;19795;53.160;6.612;2022-08-19T05:11:56;13.50;99.90
33460;DHT22;19795;53.160;6.612;2022-08-19T05:14:21;13.50;99.90
33460;DHT22;19795;53.160;6.612;2022-08-19T05:16:48;13.60;99.90
33460;DHT22;19795;53.160;6.612;2022-08-19T05:19:14;13.60;99.90
33460;DHT22;19795;53.160;6.612;2022-08-19T05:21:59;13.70;99.90
33460;DHT22;19795;53.160;6.612;2022-08-19T05:24:44;13.70;99.90
33460;DHT22;19795;53.160;6.612;2022-08-19T05:27:09;13.90;99.90
33460;DHT22;19795;53.160;6.612;2022-08-19T05:29:35;14.00;99.90
33460;DHT22;19795;53.160;6.612;2022-08-19T05:32:03;14.00;99.90
33460;DHT22;19795;53.160;6.612;2022-08-19T05:34:31;14.10;99.90
33460;DHT22;19795;53.160;6.612;2022-08-19T05:36:58;14.20;99.90
33460;DHT22;19795;53.160;6.612;2022-08-19T05:39:27;14.50;99.90
33460;DHT22;19795;53.160;6.612;2022-08-19T05:41:59;15.50;99.90
33460;DHT22;19795;53.160;6.612;2022-08-19T05:44:26;16.60;99.90
33460;DHT22;19795;53.160;6.612;2022-08-19T05:46:52;17.20;99.90
33460;DHT22;19795;53.160;6.612;2022-08-19T05:49:19;17.70;99.90
33460;DHT22;19795;53.160;6.612;2022-08-19T05:51:45;18.10;99.90
33460;DHT22;19795;53.160;6.612;2022-08-19T05:54:11;18.60;99.90
33460;DHT22;19795;53.160;6.612;2022-08-19T05:56:42;18.70;99.90
33460;DHT22;19795;53.160;6.612;2022-08-19T05:59:09;19.40;99.90
33460;DHT22;19795;53.160;6.612;2022-08-19T06:01:41;19.60;99.90
33460;DHT22;19795;53.160;6.612;2022-08-19T06:04:08;20.00;99.90
33460;DHT22;19795;53.160;6.612;2022-08-19T06:06:35;21.00;99.90
33460;DHT22;19795;53.160;6.612;2022-08-19T06:09:03;21.40;99.90
33460;DHT22;19795;53.160;6.612;2022-08-19T06:11:41;21.70;99.90
33460;DHT22;19795;53.160;6.612;2022-08-19T06:14:12;22.00;99.90
33460;DHT22;19795;53.160;6.612;2022-08-19T06:16:39;22.20;99.90
33460;DHT22;19795;53.160;6.612;2022-08-19T06:19:12;22.10;99.90
33460;DHT22;19795;53.160;6.612;2022-08-19T06:21:40;22.60;99.90
33460;DHT22;19795;53.160;6.612;2022-08-19T06:24:08;22.90;99.90
33460;DHT22;19795;53.160;6.612;2022-08-19T06:26:37;23.30;99.90
33460;DHT22;19795;53.160;6.612;2022-08-19T06:29:05;23.30;99.90
33460;DHT22;19795;53.160;6.612;2022-08-19T06:31:34;23.80;99.90
33460;DHT22;19795;53.160;6.612;2022-08-19T06:34:03;24.10;99.90
33460;DHT22;19795;53.160;6.612;2022-08-19T06:36:32;24.30;99.90
33460;DHT22;19795;53.160;6.612;2022-08-19T06:39:00;24.40;99.90
33460;DHT22;19795;53.160;6.612;2022-08-19T06:41:26;24.70;99.90
33460;DHT22;19795;53.160;6.612;2022-08-19T06:43:53;25.10;99.90
33460;DHT22;19795;53.160;6.612;2022-08-19T06:46:19;25.00;99.90
33460;DHT22;19795;53.160;6.612;2022-08-19T06:48:46;25.30;99.90
33460;DHT22;19795;53.160;6.612;2022-08-19T06:51:16;25.40;99.90
33460;DHT22;19795;53.160;6.612;2022-08-19T06:53:48;25.40;99.90
33460;DHT22;19795;53.160;6.612;2022-08-19T06:56:16;25.90;99.90
33460;DHT22;19795;53.160;6.612;2022-08-19T06:58:42;25.70;99.90
33460;DHT22;19795;53.160;6.612;2022-08-19T07:01:07;25.80;99.90
33460;DHT22;19795;53.160;6.612;2022-08-19T07:03:35;25.80;99.90
33460;DHT22;19795;53.160;6.612;2022-08-19T07:06:11;25.80;99.90
33460;DHT22;19795;53.160;6.612;2022-08-19T07:08:38;25.80;99.90
33460;DHT22;19795;53.160;6.612;2022-08-19T07:11:07;25.80;99.90
33460;DHT22;19795;53.160;6.612;2022-08-19T07:13:35;26.30;99.90
33460;DHT22;19795;53.160;6.612;2022-08-19T07:16:10;26.20;99.90
33460;DHT22;19795;53.160;6.612;2022-08-19T07:18:37;26.50;99.90
33460;DHT22;19795;53.160;6.612;2022-08-19T07:21:08;26.60;99.90
33460;DHT22;19795;53.160;6.612;2022-08-19T07:23:35;26.70;99.90
33460;DHT22;19795;53.160;6.612;2022-08-19T07:26:12;27.10;99.90
33460;DHT22;19795;53.160;6.612;2022-08-19T07:28:40;26.70;99.90
33460;DHT22;19795;53.160;6.612;2022-08-19T07:31:14;26.90;99.90
33460;DHT22;19795;53.160;6.612;2022-08-19T07:33:41;27.00;99.90
33460;DHT22;19795;53.160;6.612;2022-08-19T07:36:10;27.00;99.90
33460;DHT22;19795;53.160;6.612;2022-08-19T07:38:41;26.90;99.90
33460;DHT22;19795;53.160;6.612;2022-08-19T07:41:08;27.10;99.90
33460;DHT22;19795;53.160;6.612;2022-08-19T07:43:34;27.00;99.90
33460;DHT22;19795;53.160;6.612;2022-08-19T07:46:00;26.80;99.90
33460;DHT22;19795;53.160;6.612;2022-08-19T07:48:27;26.60;99.90
33460;DHT22;19795;53.160;6.612;2022-08-19T07:50:54;26.90;99.90
33460;DHT22;19795;53.160;6.612;2022-08-19T07:53:21;26.40;99.90
33460;DHT22;19795;53.160;6.612;2022-08-19T07:55:47;26.50;99.90
33460;DHT22;19795;53.160;6.612;2022-08-19T07:58:20;27.00;99.90
33460;DHT22;19795;53.160;6.612;2022-08-19T08:00:47;27.10;99.90
33460;DHT22;19795;53.160;6.612;2022-08-19T08:03:18;27.40;99.90
33460;DHT22;19795;53.160;6.612;2022-08-19T08:05:45;27.70;99.90
33460;DHT22;19795;53.160;6.612;2022-08-19T08:08:30;27.70;99.90
33460;DHT22;19795;53.160;6.612;2022-08-19T08:11:17;27.70;99.90
33460;DHT22;19795;53.160;6.612;2022-08-19T08:13:43;28.00;99.90
33460;DHT22;19795;53.160;6.612;2022-08-19T08:16:09;28.50;99.90
33460;DHT22;19795;53.160;6.612;2022-08-19T08:18:35;28.30;99.90
33460;DHT22;19795;53.160;6.612;2022-08-19T08:21:07;27.90;99.90
33460;DHT22;19795;53.160;6.612;2022-08-19T08:23:32;28.00;99.90
33460;DHT22;19795;53.160;6.612;2022-08-19T08:25:58;28.40;99.90
33460;DHT22;19795;53.160;6.612;2022-08-19T08:28:25;28.30;99.90
33460;DHT22;19795;53.160;6.612;2022-08-19T08:30:51;28.00;99.90
33460;DHT22;19795;53.160;6.612;2022-08-19T08:33:22;28.60;99.90
33460;DHT22;19795;53.160;6.612;2022-08-19T08:35:48;29.00;99.90
33460;DHT22;19795;53.160;6.612;2022-08-19T08:38:14;29.00;99.90
33460;DHT22;19795;53.160;6.612;2022-08-19T08:40:59;28.60;99.90
33460;DHT22;19795;53.160;6.612;2022-08-19T08:43:40;28.40;99.90
33460;DHT22;19795;53.160;6.612;2022-08-19T08:46:34;28.70;99.90
33460;DHT22;19795;53.160;6.612;2022-08-19T08:54:06;27.20;99.90
33460;DHT22;19795;53.160;6.612;2022-08-19T08:56:32;27.70;99.90
33460;DHT22;19795;53.160;6.612;2022-08-19T08:59:12;27.30;99.90
33460;DHT22;19795;53.160;6.612;2022-08-19T09:01:40;27.80;99.90
33460;DHT22;19795;53.160;6.612;2022-08-19T09:04:06;28.20;99.90
33460;DHT22;19795;53.160;6.612;2022-08-19T09:06:40;28.10;99.90
33460;DHT22;19795;53.160;6.612;2022-08-19T09:09:31;28.20;99.90
33460;DHT22;19795;53.160;6.612;2022-08-19T09:17:11;27.10;99.90
33460;DHT22;19795;53.160;6.612;2022-08-19T09:22:35;27.70;99.90
33460;DHT22;19795;53.160;6.612;2022-08-19T09:25:01;28.00;99.90
33460;DHT22;19795;53.160;6.612;2022-08-19T09:27:28;28.80;99.90
33460;DHT22;19795;53.160;6.612;2022-08-19T09:29:54;28.50;99.90
33460;DHT22;19795;53.160;6.612;2022-08-19T09:32:21;28.60;99.90
33460;DHT22;19795;53.160;6.612;2022-08-19T09:34:47;28.70;99.90
33460;DHT22;19795;53.160;6.612;2022-08-19T09:37:13;28.90;99.90
33460;DHT22;19795;53.160;6.612;2022-08-19T09:39:40;29.10;99.90
33460;DHT22;19795;53.160;6.612;2022-08-19T09:42:09;29.20;99.90
33460;DHT22;19795;53.160;6.612;2022-08-19T09:44:41;28.80;99.90
33460;DHT22;19795;53.160;6.612;2022-08-19T09:47:08;28.40;99.90
33460;DHT22;19795;53.160;6.612;2022-08-19T09:49:34;28.90;99.90
33460;DHT22;19795;53.160;6.612;2022-08-19T09:52:00;28.60;99.90
33460;DHT22;19795;53.160;6.612;2022-08-19T09:54:26;28.10;99.90
33460;DHT22;19795;53.160;6.612;2022-08-19T09:56:58;28.50;99.90
33460;DHT22;19795;53.160;6.612;2022-08-19T09:59:23;28.30;99.90
33460;DHT22;19795;53.160;6.612;2022-08-19T10:01:50;28.00;99.90
33460;DHT22;19795;53.160;6.612;2022-08-19T10:04:16;28.20;99.90
33460;DHT22;19795;53.160;6.612;2022-08-19T10:06:42;28.30;99.90
33460;DHT22;19795;53.160;6.612;2022-08-19T10:09:09;28.70;99.90
33460;DHT22;19795;53.160;6.612;2022-08-19T10:11:38;28.80;99.90
33460;DHT22;19795;53.160;6.612;2022-08-19T10:14:04;29.20;99.90
33460;DHT22;19795;53.160;6.612;2022-08-19T10:16:36;29.60;99.90
33460;DHT22;19795;53.160;6.612;2022-08-19T10:19:02;28.70;99.90
33460;DHT22;19795;53.160;6.612;2022-08-19T10:21:30;28.20;99.90
33460;DHT22;19795;53.160;6.612;2022-08-19T10:23:59;28.70;99.90
33460;DHT22;19795;53.160;6.612;2022-08-19T10:26:28;28.80;99.90
33460;DHT22;19795;53.160;6.612;2022-08-19T10:28:54;28.80;99.90
33460;DHT22;19795;53.160;6.612;2022-08-19T10:31:31;28.80;99.90
33460;DHT22;19795;53.160;6.612;2022-08-19T10:33:57;28.80;99.90
33460;DHT22;19795;53.160;6.612;2022-08-19T10:36:26;28.60;99.90
33460;DHT22;19795;53.160;6.612;2022-08-19T10:38:54;29.30;99.90
33460;DHT22;19795;53.160;6.612;2022-08-19T10:41:26;29.50;99.90
33460;DHT22;19795;53.160;6.612;2022-08-19T10:44:12;29.80;99.90
33460;DHT22;19795;53.160;6.612;2022-08-19T10:46:41;30.20;99.90
33460;DHT22;19795;53.160;6.612;2022-08-19T10:49:08;29.90;99.90
33460;DHT22;19795;53.160;6.612;2022-08-19T10:51:34;29.40;99.90
33460;DHT22;19795;53.160;6.612;2022-08-19T10:54:18;29.80;99.90
33460;DHT22;19795;53.160;6.612;2022-08-19T10:56:44;30.20;99.90
33460;DHT22;19795;53.160;6.612;2022-08-19T10:59:26;29.40;99.90
33460;DHT22;19795;53.160;6.612;2022-08-19T11:01:54;29.60;99.80
33460;DHT22;19795;53.160;6.612;2022-08-19T11:04:20;29.00;99.90
33460;DHT22;19795;53.160;6.612;2022-08-19T11:06:48;29.30;99.90
33460;DHT22;19795;53.160;6.612;2022-08-19T11:09:16;30.00;99.60
33460;DHT22;19795;53.160;6.612;2022-08-19T11:11:43;29.90;99.90
33460;DHT22;19795;53.160;6.612;2022-08-19T11:14:11;28.80;99.90
33460;DHT22;19795;53.160;6.612;2022-08-19T11:16:37;28.30;99.90
33460;DHT22;19795;53.160;6.612;2022-08-19T11:19:06;27.80;99.90
33460;DHT22;19795;53.160;6.612;2022-08-19T11:21:35;27.70;99.90
33460;DHT22;19795;53.160;6.612;2022-08-19T11:24:07;28.00;99.90
33460;DHT22;19795;53.160;6.612;2022-08-19T11:26:34;28.40;99.90
33460;DHT22;19795;53.160;6.612;2022-08-19T11:29:02;29.00;99.90
33460;DHT22;19795;53.160;6.612;2022-08-19T11:31:30;28.60;99.90
33460;DHT22;19795;53.160;6.612;2022-08-19T11:34:02;28.00;99.90
33460;DHT22;19795;53.160;6.612;2022-08-19T11:36:29;28.50;99.90
33460;DHT22;19795;53.160;6.612;2022-08-19T11:38:55;28.70;99.90
33460;DHT22;19795;53.160;6.612;2022-08-19T11:41:22;28.50;99.90
33460;DHT22;19795;53.160;6.612;2022-08-19T11:43:49;29.00;99.90
33460;DHT22;19795;53.160;6.612;2022-08-19T11:46:16;29.00;99.90
33460;DHT22;19795;53.160;6.612;2022-08-19T11:48:43;29.50;99.90
33460;DHT22;19795;53.160;6.612;2022-08-19T11:51:17;29.90;99.20
33460;DHT22;19795;53.160;6.612;2022-08-19T11:53:44;29.90;99.80
33460;DHT22;19795;53.160;6.612;2022-08-19T11:56:11;29.90;99.90
33460;DHT22;19795;53.160;6.612;2022-08-19T11:58:38;29.90;99.90
33460;DHT22;19795;53.160;6.612;2022-08-19T12:01:11;29.60;99.90
33460;DHT22;19795;53.160;6.612;2022-08-19T12:03:37;29.70;99.90
33460;DHT22;19795;53.160;6.612;2022-08-19T12:06:08;30.00;99.90
33460;DHT22;19795;53.160;6.612;2022-08-19T12:08:35;29.80;99.90
33460;DHT22;19795;53.160;6.612;2022-08-19T12:11:01;29.60;99.90
33460;DHT22;19795;53.160;6.612;2022-08-19T12:13:30;29.30;99.90
33460;DHT22;19795;53.160;6.612;2022-08-19T12:15:56;28.80;99.90
33460;DHT22;19795;53.160;6.612;2022-08-19T12:18:22;28.80;99.90
33460;DHT22;19795;53.160;6.612;2022-08-19T12:20:51;28.70;99.90
33460;DHT22;19795;53.160;6.612;2022-08-19T12:23:17;28.80;99.90
33460;DHT22;19795;53.160;6.612;2022-08-19T12:25:45;28.80;99.90
33460;DHT22;19795;53.160;6.612;2022-08-19T12:28:19;28.70;99.90
33460;DHT22;19795;53.160;6.612;2022-08-19T12:30:46;28.80;99.90
33460;DHT22;19795;53.160;6.612;2022-08-19T12:33:12;28.80;99.90
33460;DHT22;19795;53.160;6.612;2022-08-19T12:35:43;28.80;99.90
33460;DHT22;19795;53.160;6.612;2022-08-19T12:38:10;28.80;99.90
33460;DHT22;19795;53.160;6.612;2022-08-19T12:40:36;28.80;99.90
33460;DHT22;19795;53.160;6.612;2022-08-19T12:43:02;28.60;99.90
33460;DHT22;19795;53.160;6.612;2022-08-19T12:45:28;28.40;99.90
33460;DHT22;19795;53.160;6.612;2022-08-19T12:47:54;28.30;99.90
33460;DHT22;19795;53.160;6.612;2022-08-19T12:50:20;28.30;99.90
33460;DHT22;19795;53.160;6.612;2022-08-19T12:52:47;28.30;99.90
33460;DHT22;19795;53.160;6.612;2022-08-19T12:55:13;28.30;99.90
33460;DHT22;19795;53.160;6.612;2022-08-19T12:57:39;28.10;99.90
33460;DHT22;19795;53.160;6.612;2022-08-19T13:00:14;28.30;99.90
33460;DHT22;19795;53.160;6.612;2022-08-19T13:02:41;28.10;99.90
33460;DHT22;19795;53.160;6.612;2022-08-19T13:05:12;28.40;99.90
33460;DHT22;19795;53.160;6.612;2022-08-19T13:07:39;28.50;99.90
33460;DHT22;19795;53.160;6.612;2022-08-19T13:10:07;28.60;99.90
33460;DHT22;19795;53.160;6.612;2022-08-19T13:12:33;28.80;99.90
33460;DHT22;19795;53.160;6.612;2022-08-19T13:14:58;28.80;99.90
33460;DHT22;19795;53.160;6.612;2022-08-19T13:17:24;29.10;99.90
33460;DHT22;19795;53.160;6.612;2022-08-19T13:19:50;29.00;99.90
33460;DHT22;19795;53.160;6.612;2022-08-19T13:22:16;28.80;99.90
33460;DHT22;19795;53.160;6.612;2022-08-19T13:24:41;28.50;99.90
33460;DHT22;19795;53.160;6.612;2022-08-19T13:27:08;28.30;99.90
33460;DHT22;19795;53.160;6.612;2022-08-19T13:29:34;27.70;99.90
33460;DHT22;19795;53.160;6.612;2022-08-19T13:32:18;27.40;99.90
33460;DHT22;19795;53.160;6.612;2022-08-19T13:35:03;26.70;99.90
33460;DHT22;19795;53.160;6.612;2022-08-19T13:37:29;26.50;99.90
33460;DHT22;19795;53.160;6.612;2022-08-19T13:40:18;26.70;99.90
33460;DHT22;19795;53.160;6.612;2022-08-19T13:42:47;27.10;99.90
33460;DHT22;19795;53.160;6.612;2022-08-19T13:45:15;27.30;99.90
33460;DHT22;19795;53.160;6.612;2022-08-19T13:47:46;27.10;99.90
33460;DHT22;19795;53.160;6.612;2022-08-19T13:50:13;26.70;99.90
33460;DHT22;19795;53.160;6.612;2022-08-19T13:52:40;26.30;99.90
33460;DHT22;19795;53.160;6.612;2022-08-19T13:55:08;26.10;99.90
33460;DHT22;19795;53.160;6.612;2022-08-19T13:57:34;26.10;99.90
33460;DHT22;19795;53.160;6.612;2022-08-19T14:00:00;25.80;99.90
33460;DHT22;19795;53.160;6.612;2022-08-19T14:02:25;25.40;99.90
33460;DHT22;19795;53.160;6.612;2022-08-19T14:04:52;25.10;99.90
33460;DHT22;19795;53.160;6.612;2022-08-19T14:07:18;24.90;99.90
33460;DHT22;19795;53.160;6.612;2022-08-19T14:09:43;24.70;99.90
33460;DHT22;19795;53.160;6.612;2022-08-19T14:12:11;24.70;99.90
33460;DHT22;19795;53.160;6.612;2022-08-19T14:14:39;24.50;99.90
33460;DHT22;19795;53.160;6.612;2022-08-19T14:17:06;24.50;99.90
33460;DHT22;19795;53.160;6.612;2022-08-19T14:19:32;24.40;99.90
33460;DHT22;19795;53.160;6.612;2022-08-19T14:21:58;24.30;99.90
33460;DHT22;19795;53.160;6.612;2022-08-19T14:24:24;24.30;99.90
33460;DHT22;19795;53.160;6.612;2022-08-19T14:26:50;24.20;99.90
33460;DHT22;19795;53.160;6.612;2022-08-19T14:29:15;24.10;99.90
33460;DHT22;19795;53.160;6.612;2022-08-19T14:31:41;24.10;99.90
33460;DHT22;19795;53.160;6.612;2022-08-19T14:34:08;24.00;99.90
33460;DHT22;19795;53.160;6.612;2022-08-19T14:36:36;24.10;99.90
33460;DHT22;19795;53.160;6.612;2022-08-19T14:39:03;24.00;99.90
33460;DHT22;19795;53.160;6.612;2022-08-19T14:41:29;24.20;99.90
33460;DHT22;19795;53.160;6.612;2022-08-19T14:44:04;24.20;99.90
33460;DHT22;19795;53.160;6.612;2022-08-19T14:46:29;24.50;99.90
33460;DHT22;19795;53.160;6.612;2022-08-19T14:48:55;24.70;99.90
33460;DHT22;19795;53.160;6.612;2022-08-19T14:51:22;24.90;99.90
33460;DHT22;19795;53.160;6.612;2022-08-19T14:53:49;24.90;99.90
33460;DHT22;19795;53.160;6.612;2022-08-19T14:56:17;24.90;99.90
33460;DHT22;19795;53.160;6.612;2022-08-19T14:58:44;24.40;99.90
33460;DHT22;19795;53.160;6.612;2022-08-19T15:01:10;24.40;99.90
33460;DHT22;19795;53.160;6.612;2022-08-19T15:03:37;24.70;99.90
33460;DHT22;19795;53.160;6.612;2022-08-19T15:06:04;24.90;99.90
33460;DHT22;19795;53.160;6.612;2022-08-19T15:08:31;25.00;99.90
33460;DHT22;19795;53.160;6.612;2022-08-19T15:10:58;25.20;99.90
33460;DHT22;19795;53.160;6.612;2022-08-19T15:13:25;25.30;99.90
33460;DHT22;19795;53.160;6.612;2022-08-19T15:15:56;25.60;99.90
33460;DHT22;19795;53.160;6.612;2022-08-19T15:18:23;25.90;99.90
33460;DHT22;19795;53.160;6.612;2022-08-19T15:20:49;26.40;99.90
33460;DHT22;19795;53.160;6.612;2022-08-19T15:23:16;26.20;99.90
33460;DHT22;19795;53.160;6.612;2022-08-19T15:25:42;25.90;99.90
33460;DHT22;19795;53.160;6.612;2022-08-19T15:28:11;25.90;99.90
33460;DHT22;19795;53.160;6.612;2022-08-19T15:30:38;25.90;99.90
33460;DHT22;19795;53.160;6.612;2022-08-19T15:33:04;25.60;99.90
33460;DHT22;19795;53.160;6.612;2022-08-19T15:35:30;25.40;99.90
33460;DHT22;19795;53.160;6.612;2022-08-19T15:37:56;25.40;99.90
33460;DHT22;19795;53.160;6.612;2022-08-19T15:40:25;25.60;99.90
33460;DHT22;19795;53.160;6.612;2022-08-19T15:42:51;25.60;99.90
33460;DHT22;19795;53.160;6.612;2022-08-19T15:45:17;25.60;99.90
33460;DHT22;19795;53.160;6.612;2022-08-19T15:47:44;25.50;99.90
33460;DHT22;19795;53.160;6.612;2022-08-19T15:50:14;25.80;99.90
33460;DHT22;19795;53.160;6.612;2022-08-19T15:55:12;25.90;99.90
33460;DHT22;19795;53.160;6.612;2022-08-19T15:57:37;25.90;99.90
33460;DHT22;19795;53.160;6.612;2022-08-19T16:00:21;25.90;99.90
33460;DHT22;19795;53.160;6.612;2022-08-19T16:03:05;26.30;99.90
33460;DHT22;19795;53.160;6.612;2022-08-19T16:05:50;26.50;99.90
33460;DHT22;19795;53.160;6.612;2022-08-19T16:08:55;26.40;99.90
33460;DHT22;19795;53.160;6.612;2022-08-19T16:11:23;25.60;99.90
33460;DHT22;19795;53.160;6.612;2022-08-19T16:13:53;25.30;99.90
33460;DHT22;19795;53.160;6.612;2022-08-19T16:16:27;25.20;99.90
33460;DHT22;19795;53.160;6.612;2022-08-19T16:18:54;24.90;99.90
33460;DHT22;19795;53.160;6.612;2022-08-19T16:21:22;24.70;99.90
33460;DHT22;19795;53.160;6.612;2022-08-19T16:23:48;24.60;99.90
33460;DHT22;19795;53.160;6.612;2022-08-19T16:26:16;24.30;99.90
33460;DHT22;19795;53.160;6.612;2022-08-19T16:28:43;24.30;99.90
33460;DHT22;19795;53.160;6.612;2022-08-19T16:31:15;24.40;99.90
33460;DHT22;19795;53.160;6.612;2022-08-19T16:33:41;24.60;99.90
33460;DHT22;19795;53.160;6.612;2022-08-19T16:36:07;24.50;99.90
33460;DHT22;19795;53.160;6.612;2022-08-19T16:38:33;24.70;99.90
33460;DHT22;19795;53.160;6.612;2022-08-19T16:40:59;24.80;99.90
33460;DHT22;19795;53.160;6.612;2022-08-19T16:43:27;24.90;99.90
33460;DHT22;19795;53.160;6.612;2022-08-19T16:45:53;25.00;99.90
33460;DHT22;19795;53.160;6.612;2022-08-19T16:48:24;24.90;99.90
33460;DHT22;19795;53.160;6.612;2022-08-19T16:50:51;24.80;99.90
33460;DHT22;19795;53.160;6.612;2022-08-19T16:53:19;24.90;99.90
33460;DHT22;19795;53.160;6.612;2022-08-19T16:55:47;24.60;99.90
33460;DHT22;19795;53.160;6.612;2022-08-19T16:58:18;24.40;99.90
33460;DHT22;19795;53.160;6.612;2022-08-19T17:00:45;24.00;99.90
33460;DHT22;19795;53.160;6.612;2022-08-19T17:03:11;23.70;99.90
33460;DHT22;19795;53.160;6.612;2022-08-19T17:05:45;23.50;99.90
33460;DHT22;19795;53.160;6.612;2022-08-19T17:08:11;23.20;99.90
33460;DHT22;19795;53.160;6.612;2022-08-19T17:10:37;23.00;99.90
33460;DHT22;19795;53.160;6.612;2022-08-19T17:13:04;22.90;99.90
33460;DHT22;19795;53.160;6.612;2022-08-19T17:15:32;22.70;99.90
33460;DHT22;19795;53.160;6.612;2022-08-19T17:18:03;22.10;99.90
33460;DHT22;19795;53.160;6.612;2022-08-19T17:20:30;21.60;99.90
33460;DHT22;19795;53.160;6.612;2022-08-19T17:22:56;21.20;99.90
33460;DHT22;19795;53.160;6.612;2022-08-19T17:25:25;21.00;99.90
33460;DHT22;19795;53.160;6.612;2022-08-19T17:27:51;20.80;99.90
33460;DHT22;19795;53.160;6.612;2022-08-19T17:30:17;20.80;99.90
33460;DHT22;19795;53.160;6.612;2022-08-19T17:32:43;20.60;99.90
33460;DHT22;19795;53.160;6.612;2022-08-19T17:35:09;20.70;99.90
33460;DHT22;19795;53.160;6.612;2022-08-19T17:37:35;20.70;99.90
33460;DHT22;19795;53.160;6.612;2022-08-19T17:40:06;20.70;99.90
33460;DHT22;19795;53.160;6.612;2022-08-19T17:42:33;20.60;99.90
33460;DHT22;19795;53.160;6.612;2022-08-19T17:45:01;20.60;99.90
33460;DHT22;19795;53.160;6.612;2022-08-19T17:47:27;20.60;99.90
33460;DHT22;19795;53.160;6.612;2022-08-19T17:49:53;20.50;99.90
33460;DHT22;19795;53.160;6.612;2022-08-19T17:52:18;20.50;99.90
33460;DHT22;19795;53.160;6.612;2022-08-19T17:54:45;20.40;99.90
33460;DHT22;19795;53.160;6.612;2022-08-19T17:57:11;20.50;99.90
33460;DHT22;19795;53.160;6.612;2022-08-19T17:59:38;20.40;99.90
33460;DHT22;19795;53.160;6.612;2022-08-19T18:02:06;20.40;99.90
33460;DHT22;19795;53.160;6.612;2022-08-19T18:04:32;20.30;99.90
33460;DHT22;19795;53.160;6.612;2022-08-19T18:06:58;20.30;99.90
33460;DHT22;19795;53.160;6.612;2022-08-19T18:09:31;20.40;99.90
33460;DHT22;19795;53.160;6.612;2022-08-19T18:11:57;20.40;99.90
33460;DHT22;19795;53.160;6.612;2022-08-19T18:14:26;20.40;99.90
33460;DHT22;19795;53.160;6.612;2022-08-19T18:16:56;20.40;99.90
33460;DHT22;19795;53.160;6.612;2022-08-19T18:19:23;20.40;99.90
33460;DHT22;19795;53.160;6.612;2022-08-19T18:21:49;20.50;99.90
33460;DHT22;19795;53.160;6.612;2022-08-19T18:24:15;20.50;99.90
33460;DHT22;19795;53.160;6.612;2022-08-19T18:26:41;20.50;99.90
33460;DHT22;19795;53.160;6.612;2022-08-19T18:29:07;20.40;99.90
33460;DHT22;19795;53.160;6.612;2022-08-19T18:31:34;20.40;99.90
33460;DHT22;19795;53.160;6.612;2022-08-19T18:34:01;20.40;99.90
33460;DHT22;19795;53.160;6.612;2022-08-19T18:36:27;20.40;99.90
33460;DHT22;19795;53.160;6.612;2022-08-19T18:38:54;20.40;99.90
33460;DHT22;19795;53.160;6.612;2022-08-19T18:41:38;20.50;99.90
33460;DHT22;19795;53.160;6.612;2022-08-19T18:44:22;20.60;99.90
33460;DHT22;19795;53.160;6.612;2022-08-19T18:47:06;20.50;99.90
33460;DHT22;19795;53.160;6.612;2022-08-19T18:49:50;20.60;99.90
33460;DHT22;19795;53.160;6.612;2022-08-19T18:52:19;20.50;99.90
33460;DHT22;19795;53.160;6.612;2022-08-19T18:54:51;20.40;99.90
33460;DHT22;19795;53.160;6.612;2022-08-19T18:57:18;20.50;99.90
33460;DHT22;19795;53.160;6.612;2022-08-19T18:59:49;20.40;99.90
33460;DHT22;19795;53.160;6.612;2022-08-19T19:02:15;20.30;99.90
33460;DHT22;19795;53.160;6.612;2022-08-19T19:04:43;20.30;99.90
33460;DHT22;19795;53.160;6.612;2022-08-19T19:07:16;20.20;99.90
33460;DHT22;19795;53.160;6.612;2022-08-19T19:09:45;20.20;99.90
33460;DHT22;19795;53.160;6.612;2022-08-19T19:12:16;20.20;99.90
33460;DHT22;19795;53.160;6.612;2022-08-19T19:14:43;20.20;99.90
33460;DHT22;19795;53.160;6.612;2022-08-19T19:17:11;20.00;99.90
33460;DHT22;19795;53.160;6.612;2022-08-19T19:19:38;20.20;99.90
33460;DHT22;19795;53.160;6.612;2022-08-19T19:22:08;20.10;99.90
33460;DHT22;19795;53.160;6.612;2022-08-19T19:24:36;20.10;99.90
33460;DHT22;19795;53.160;6.612;2022-08-19T19:27:03;20.10;99.90
33460;DHT22;19795;53.160;6.612;2022-08-19T19:29:31;20.10;99.90
33460;DHT22;19795;53.160;6.612;2022-08-19T19:32:01;20.10;99.90
33460;DHT22;19795;53.160;6.612;2022-08-19T19:34:27;20.10;99.90
